sensor_id;sensor_type;location;lat;lon;timestamp;P1;durP1;ratioP1;P2;durP2;ratioP2
71383;SDS011;67558;52.166;5.004;2023-03-03T00:00:24;8.02;;;4.72;;
71383;SDS011;67558;52.166;5.004;2023-03-03T00:02:49;5.85;;;4.13;;
71383;SDS011;67558;52.166;5.004;2023-03-03T00:05:15;6.00;;;4.00;;
71383;SDS011;67558;52.166;5.004;2023-03-03T00:07:45;8.25;;;4.45;;
71383;SDS011;67558;52.166;5.004;2023-03-03T00:10:11;3.75;;;2.25;;
71383;SDS011;67558;52.166;5.004;2023-03-03T00:12:43;9.60;;;4.47;;
71383;SDS011;67558;52.166;5.004;2023-03-03T00:15:18;6.53;;;4.28;;
71383;SDS011;67558;52.166;5.004;2023-03-03T00:17:46;9.40;;;4.45;;
71383;SDS011;67558;52.166;5.004;2023-03-03T00:20:32;2.25;;;1.40;;
71383;SDS011;67558;52.166;5.004;2023-03-03T00:23:46;9.85;;;5.00;;
71383;SDS011;67558;52.166;5.004;2023-03-03T00:26:25;8.63;;;4.28;;
71383;SDS011;67558;52.166;5.004;2023-03-03T00:28:55;8.40;;;3.38;;
71383;SDS011;67558;52.166;5.004;2023-03-03T00:31:34;12.32;;;5.65;;
71383;SDS011;67558;52.166;5.004;2023-03-03T00:34:20;10.52;;;5.32;;
71383;SDS011;67558;52.166;5.004;2023-03-03T00:36:54;10.18;;;5.25;;
71383;SDS011;67558;52.166;5.004;2023-03-03T00:39:30;10.90;;;5.35;;
71383;SDS011;67558;52.166;5.004;2023-03-03T00:42:00;7.60;;;3.80;;
71383;SDS011;67558;52.166;5.004;2023-03-03T00:44:41;7.88;;;3.95;;
71383;SDS011;67558;52.166;5.004;2023-03-03T00:53:06;10.32;;;4.95;;
71383;SDS011;67558;52.166;5.004;2023-03-03T00:55:31;9.43;;;4.85;;
71383;SDS011;67558;52.166;5.004;2023-03-03T00:57:58;8.35;;;4.43;;
71383;SDS011;67558;52.166;5.004;2023-03-03T01:00:23;8.63;;;4.47;;
71383;SDS011;67558;52.166;5.004;2023-03-03T01:02:49;8.30;;;4.82;;
71383;SDS011;67558;52.166;5.004;2023-03-03T01:05:15;9.45;;;5.10;;
71383;SDS011;67558;52.166;5.004;2023-03-03T01:07:41;6.50;;;3.53;;
71383;SDS011;67558;52.166;5.004;2023-03-03T01:10:07;10.38;;;4.43;;
71383;SDS011;67558;52.166;5.004;2023-03-03T01:12:33;8.02;;;4.32;;
71383;SDS011;67558;52.166;5.004;2023-03-03T01:14:58;6.68;;;3.22;;
71383;SDS011;67558;52.166;5.004;2023-03-03T01:17:24;6.13;;;4.07;;
71383;SDS011;67558;52.166;5.004;2023-03-03T01:19:49;10.40;;;4.50;;
71383;SDS011;67558;52.166;5.004;2023-03-03T01:22:14;10.57;;;4.85;;
71383;SDS011;67558;52.166;5.004;2023-03-03T01:24:40;9.77;;;5.25;;
71383;SDS011;67558;52.166;5.004;2023-03-03T01:27:05;7.13;;;3.72;;
71383;SDS011;67558;52.166;5.004;2023-03-03T01:29:30;9.40;;;4.13;;
71383;SDS011;67558;52.166;5.004;2023-03-03T01:31:56;9.75;;;4.55;;
71383;SDS011;67558;52.166;5.004;2023-03-03T01:34:21;9.82;;;4.07;;
71383;SDS011;67558;52.166;5.004;2023-03-03T01:36:46;5.47;;;3.50;;
71383;SDS011;67558;52.166;5.004;2023-03-03T01:39:12;4.18;;;2.33;;
71383;SDS011;67558;52.166;5.004;2023-03-03T01:41:37;6.72;;;4.15;;
71383;SDS011;67558;52.166;5.004;2023-03-03T01:44:03;9.13;;;4.50;;
71383;SDS011;67558;52.166;5.004;2023-03-03T01:46:30;6.95;;;4.60;;
71383;SDS011;67558;52.166;5.004;2023-03-03T01:49:06;10.43;;;4.80;;
71383;SDS011;67558;52.166;5.004;2023-03-03T01:54:44;10.10;;;5.00;;
71383;SDS011;67558;52.166;5.004;2023-03-03T01:57:15;5.30;;;2.53;;
71383;SDS011;67558;52.166;5.004;2023-03-03T01:59:47;8.80;;;4.32;;
71383;SDS011;67558;52.166;5.004;2023-03-03T02:02:15;10.77;;;5.30;;
71383;SDS011;67558;52.166;5.004;2023-03-03T02:04:41;5.25;;;3.75;;
71383;SDS011;67558;52.166;5.004;2023-03-03T02:07:07;8.20;;;5.10;;
71383;SDS011;67558;52.166;5.004;2023-03-03T02:09:50;12.80;;;5.90;;
71383;SDS011;67558;52.166;5.004;2023-03-03T02:12:22;11.75;;;2.33;;
71383;SDS011;67558;52.166;5.004;2023-03-03T02:14:54;8.35;;;3.00;;
71383;SDS011;67558;52.166;5.004;2023-03-03T02:17:19;9.50;;;5.53;;
71383;SDS011;67558;52.166;5.004;2023-03-03T02:23:00;4.75;;;2.47;;
71383;SDS011;67558;52.166;5.004;2023-03-03T02:28:15;10.60;;;5.60;;
71383;SDS011;67558;52.166;5.004;2023-03-03T02:30:41;11.57;;;5.72;;
71383;SDS011;67558;52.166;5.004;2023-03-03T02:33:06;16.65;;;6.22;;
71383;SDS011;67558;52.166;5.004;2023-03-03T02:35:35;11.65;;;5.68;;
71383;SDS011;67558;52.166;5.004;2023-03-03T02:38:48;7.00;;;4.03;;
71383;SDS011;67558;52.166;5.004;2023-03-03T02:43:31;11.85;;;6.20;;
71383;SDS011;67558;52.166;5.004;2023-03-03T02:46:03;7.50;;;4.32;;
71383;SDS011;67558;52.166;5.004;2023-03-03T02:48:28;5.53;;;2.92;;
71383;SDS011;67558;52.166;5.004;2023-03-03T02:50:54;6.45;;;4.45;;
71383;SDS011;67558;52.166;5.004;2023-03-03T02:53:19;8.77;;;3.85;;
71383;SDS011;67558;52.166;5.004;2023-03-03T02:55:44;6.32;;;3.30;;
71383;SDS011;67558;52.166;5.004;2023-03-03T02:58:10;11.68;;;5.35;;
71383;SDS011;67558;52.166;5.004;2023-03-03T03:00:35;11.93;;;5.00;;
71383;SDS011;67558;52.166;5.004;2023-03-03T03:03:00;12.40;;;4.97;;
71383;SDS011;67558;52.166;5.004;2023-03-03T03:05:26;9.90;;;4.28;;
71383;SDS011;67558;52.166;5.004;2023-03-03T03:07:51;10.80;;;4.45;;
71383;SDS011;67558;52.166;5.004;2023-03-03T03:10:16;10.57;;;4.85;;
71383;SDS011;67558;52.166;5.004;2023-03-03T03:12:42;17.55;;;5.18;;
71383;SDS011;67558;52.166;5.004;2023-03-03T03:15:07;15.88;;;5.47;;
71383;SDS011;67558;52.166;5.004;2023-03-03T03:17:35;13.32;;;3.88;;
71383;SDS011;67558;52.166;5.004;2023-03-03T03:20:01;18.17;;;5.32;;
71383;SDS011;67558;52.166;5.004;2023-03-03T03:22:27;13.90;;;4.95;;
71383;SDS011;67558;52.166;5.004;2023-03-03T03:24:52;7.72;;;3.55;;
71383;SDS011;67558;52.166;5.004;2023-03-03T03:27:17;11.65;;;5.18;;
71383;SDS011;67558;52.166;5.004;2023-03-03T03:29:43;10.65;;;5.82;;
71383;SDS011;67558;52.166;5.004;2023-03-03T03:32:09;11.68;;;4.47;;
71383;SDS011;67558;52.166;5.004;2023-03-03T03:34:35;16.92;;;6.07;;
71383;SDS011;67558;52.166;5.004;2023-03-03T03:37:00;7.10;;;4.63;;
71383;SDS011;67558;52.166;5.004;2023-03-03T03:39:26;16.70;;;6.47;;
71383;SDS011;67558;52.166;5.004;2023-03-03T03:41:51;13.35;;;4.60;;
71383;SDS011;67558;52.166;5.004;2023-03-03T03:44:16;4.13;;;2.35;;
71383;SDS011;67558;52.166;5.004;2023-03-03T03:46:42;10.70;;;5.00;;
71383;SDS011;67558;52.166;5.004;2023-03-03T03:49:07;11.52;;;5.00;;
71383;SDS011;67558;52.166;5.004;2023-03-03T03:51:32;37.97;;;7.53;;
71383;SDS011;67558;52.166;5.004;2023-03-03T03:53:59;11.75;;;5.35;;
71383;SDS011;67558;52.166;5.004;2023-03-03T03:56:24;12.38;;;5.50;;
71383;SDS011;67558;52.166;5.004;2023-03-03T03:58:50;23.10;;;4.75;;
71383;SDS011;67558;52.166;5.004;2023-03-03T04:01:15;15.40;;;4.90;;
71383;SDS011;67558;52.166;5.004;2023-03-03T04:03:40;11.25;;;4.40;;
71383;SDS011;67558;52.166;5.004;2023-03-03T04:06:06;8.50;;;4.75;;
71383;SDS011;67558;52.166;5.004;2023-03-03T04:08:31;14.63;;;5.22;;
71383;SDS011;67558;52.166;5.004;2023-03-03T04:10:56;12.00;;;3.75;;
71383;SDS011;67558;52.166;5.004;2023-03-03T04:13:22;12.63;;;5.53;;
71383;SDS011;67558;52.166;5.004;2023-03-03T04:15:47;18.70;;;5.95;;
71383;SDS011;67558;52.166;5.004;2023-03-03T04:18:13;12.23;;;3.00;;
71383;SDS011;67558;52.166;5.004;2023-03-03T04:20:38;17.10;;;6.50;;
71383;SDS011;67558;52.166;5.004;2023-03-03T04:23:04;5.97;;;2.78;;
71383;SDS011;67558;52.166;5.004;2023-03-03T04:25:29;13.77;;;4.38;;
71383;SDS011;67558;52.166;5.004;2023-03-03T04:27:55;15.43;;;4.32;;
71383;SDS011;67558;52.166;5.004;2023-03-03T04:30:20;17.35;;;5.65;;
71383;SDS011;67558;52.166;5.004;2023-03-03T04:32:45;7.78;;;3.83;;
71383;SDS011;67558;52.166;5.004;2023-03-03T04:35:11;8.02;;;3.15;;
71383;SDS011;67558;52.166;5.004;2023-03-03T04:37:37;23.40;;;5.18;;
71383;SDS011;67558;52.166;5.004;2023-03-03T04:40:03;24.23;;;8.68;;
71383;SDS011;67558;52.166;5.004;2023-03-03T04:42:30;4.00;;;1.65;;
71383;SDS011;67558;52.166;5.004;2023-03-03T04:44:56;11.25;;;6.00;;
71383;SDS011;67558;52.166;5.004;2023-03-03T04:47:21;7.57;;;3.20;;
71383;SDS011;67558;52.166;5.004;2023-03-03T04:49:46;14.90;;;5.28;;
71383;SDS011;67558;52.166;5.004;2023-03-03T04:52:12;12.93;;;4.70;;
71383;SDS011;67558;52.166;5.004;2023-03-03T04:54:37;28.20;;;5.80;;
71383;SDS011;67558;52.166;5.004;2023-03-03T04:57:03;21.67;;;6.00;;
71383;SDS011;67558;52.166;5.004;2023-03-03T04:59:28;9.68;;;4.93;;
71383;SDS011;67558;52.166;5.004;2023-03-03T05:01:53;12.80;;;4.18;;
71383;SDS011;67558;52.166;5.004;2023-03-03T05:04:19;21.23;;;5.70;;
71383;SDS011;67558;52.166;5.004;2023-03-03T05:06:44;8.48;;;4.55;;
71383;SDS011;67558;52.166;5.004;2023-03-03T05:09:09;22.35;;;7.15;;
71383;SDS011;67558;52.166;5.004;2023-03-03T05:11:35;18.52;;;5.07;;
71383;SDS011;67558;52.166;5.004;2023-03-03T05:14:00;25.30;;;6.00;;
71383;SDS011;67558;52.166;5.004;2023-03-03T05:16:27;17.48;;;3.75;;
71383;SDS011;67558;52.166;5.004;2023-03-03T05:18:52;26.15;;;5.35;;
71383;SDS011;67558;52.166;5.004;2023-03-03T05:21:18;17.13;;;5.90;;
71383;SDS011;67558;52.166;5.004;2023-03-03T05:23:43;15.60;;;6.15;;
71383;SDS011;67558;52.166;5.004;2023-03-03T05:26:08;30.95;;;8.40;;
71383;SDS011;67558;52.166;5.004;2023-03-03T05:28:34;12.27;;;4.97;;
71383;SDS011;67558;52.166;5.004;2023-03-03T05:30:59;27.10;;;7.18;;
71383;SDS011;67558;52.166;5.004;2023-03-03T05:33:24;14.75;;;4.70;;
71383;SDS011;67558;52.166;5.004;2023-03-03T05:35:53;14.93;;;5.00;;
71383;SDS011;67558;52.166;5.004;2023-03-03T05:38:20;2.55;;;2.05;;
71383;SDS011;67558;52.166;5.004;2023-03-03T05:40:46;19.75;;;5.40;;
71383;SDS011;67558;52.166;5.004;2023-03-03T05:43:11;27.75;;;8.10;;
71383;SDS011;67558;52.166;5.004;2023-03-03T05:45:37;25.65;;;7.60;;
71383;SDS011;67558;52.166;5.004;2023-03-03T05:48:02;16.13;;;6.57;;
71383;SDS011;67558;52.166;5.004;2023-03-03T05:50:29;12.68;;;5.15;;
71383;SDS011;67558;52.166;5.004;2023-03-03T05:52:54;14.38;;;5.55;;
71383;SDS011;67558;52.166;5.004;2023-03-03T05:55:20;17.50;;;6.50;;
71383;SDS011;67558;52.166;5.004;2023-03-03T05:57:45;23.70;;;6.57;;
71383;SDS011;67558;52.166;5.004;2023-03-03T06:00:11;18.90;;;8.13;;
71383;SDS011;67558;52.166;5.004;2023-03-03T06:02:38;13.93;;;5.88;;
71383;SDS011;67558;52.166;5.004;2023-03-03T06:05:03;15.23;;;6.82;;
71383;SDS011;67558;52.166;5.004;2023-03-03T06:07:29;14.90;;;5.95;;
71383;SDS011;67558;52.166;5.004;2023-03-03T06:09:54;17.17;;;6.28;;
71383;SDS011;67558;52.166;5.004;2023-03-03T06:12:20;25.15;;;6.07;;
71383;SDS011;67558;52.166;5.004;2023-03-03T06:14:46;12.50;;;6.00;;
71383;SDS011;67558;52.166;5.004;2023-03-03T06:17:11;13.15;;;5.47;;
71383;SDS011;67558;52.166;5.004;2023-03-03T06:19:37;14.77;;;6.00;;
71383;SDS011;67558;52.166;5.004;2023-03-03T06:22:02;9.35;;;5.25;;
71383;SDS011;67558;52.166;5.004;2023-03-03T06:24:28;12.18;;;5.18;;
71383;SDS011;67558;52.166;5.004;2023-03-03T06:26:56;15.15;;;4.40;;
71383;SDS011;67558;52.166;5.004;2023-03-03T06:29:21;12.38;;;5.43;;
71383;SDS011;67558;52.166;5.004;2023-03-03T06:31:47;11.57;;;5.32;;
71383;SDS011;67558;52.166;5.004;2023-03-03T06:34:12;12.65;;;4.40;;
71383;SDS011;67558;52.166;5.004;2023-03-03T06:36:38;9.68;;;4.30;;
71383;SDS011;67558;52.166;5.004;2023-03-03T06:39:03;6.65;;;4.18;;
71383;SDS011;67558;52.166;5.004;2023-03-03T06:41:28;12.90;;;4.75;;
71383;SDS011;67558;52.166;5.004;2023-03-03T06:43:54;9.25;;;5.00;;
71383;SDS011;67558;52.166;5.004;2023-03-03T06:46:20;6.20;;;2.78;;
71383;SDS011;67558;52.166;5.004;2023-03-03T06:48:45;10.65;;;3.80;;
71383;SDS011;67558;52.166;5.004;2023-03-03T06:51:22;8.93;;;4.32;;
71383;SDS011;67558;52.166;5.004;2023-03-03T06:53:51;3.72;;;2.35;;
71383;SDS011;67558;52.166;5.004;2023-03-03T06:56:19;7.05;;;2.85;;
71383;SDS011;67558;52.166;5.004;2023-03-03T06:58:45;7.63;;;3.35;;
71383;SDS011;67558;52.166;5.004;2023-03-03T07:01:15;8.02;;;3.55;;
71383;SDS011;67558;52.166;5.004;2023-03-03T07:03:42;2.67;;;2.42;;
71383;SDS011;67558;52.166;5.004;2023-03-03T07:06:13;8.60;;;4.47;;
71383;SDS011;67558;52.166;5.004;2023-03-03T07:08:46;7.82;;;3.47;;
71383;SDS011;67558;52.166;5.004;2023-03-03T07:11:11;4.68;;;2.85;;
71383;SDS011;67558;52.166;5.004;2023-03-03T07:13:43;8.50;;;3.28;;
71383;SDS011;67558;52.166;5.004;2023-03-03T07:16:12;11.88;;;4.05;;
71383;SDS011;67558;52.166;5.004;2023-03-03T07:21:32;6.75;;;3.55;;
71383;SDS011;67558;52.166;5.004;2023-03-03T07:24:00;7.85;;;4.25;;
71383;SDS011;67558;52.166;5.004;2023-03-03T07:26:37;8.38;;;4.45;;
71383;SDS011;67558;52.166;5.004;2023-03-03T07:29:24;4.82;;;2.63;;
71383;SDS011;67558;52.166;5.004;2023-03-03T07:31:50;6.13;;;3.17;;
71383;SDS011;67558;52.166;5.004;2023-03-03T07:37:01;2.08;;;1.27;;
71383;SDS011;67558;52.166;5.004;2023-03-03T07:39:35;6.63;;;3.85;;
71383;SDS011;67558;52.166;5.004;2023-03-03T07:42:05;7.25;;;4.38;;
71383;SDS011;67558;52.166;5.004;2023-03-03T07:44:39;6.20;;;2.80;;
71383;SDS011;67558;52.166;5.004;2023-03-03T07:47:14;8.52;;;3.88;;
71383;SDS011;67558;52.166;5.004;2023-03-03T07:49:47;9.13;;;4.82;;
71383;SDS011;67558;52.166;5.004;2023-03-03T07:57:51;4.65;;;3.17;;
71383;SDS011;67558;52.166;5.004;2023-03-03T08:03:00;9.10;;;4.07;;
71383;SDS011;67558;52.166;5.004;2023-03-03T08:10:37;8.38;;;3.83;;
71383;SDS011;67558;52.166;5.004;2023-03-03T08:13:20;9.18;;;4.40;;
71383;SDS011;67558;52.166;5.004;2023-03-03T08:16:01;9.80;;;4.20;;
71383;SDS011;67558;52.166;5.004;2023-03-03T08:21:11;5.72;;;3.60;;
71383;SDS011;67558;52.166;5.004;2023-03-03T08:23:42;8.88;;;3.70;;
71383;SDS011;67558;52.166;5.004;2023-03-03T08:26:09;8.23;;;3.53;;
71383;SDS011;67558;52.166;5.004;2023-03-03T08:28:36;6.80;;;3.25;;
71383;SDS011;67558;52.166;5.004;2023-03-03T08:31:02;6.57;;;3.78;;
71383;SDS011;67558;52.166;5.004;2023-03-03T08:33:28;8.13;;;3.53;;
71383;SDS011;67558;52.166;5.004;2023-03-03T08:35:53;9.32;;;4.75;;
71383;SDS011;67558;52.166;5.004;2023-03-03T08:38:19;10.40;;;4.07;;
71383;SDS011;67558;52.166;5.004;2023-03-03T08:40:46;7.15;;;3.78;;
71383;SDS011;67558;52.166;5.004;2023-03-03T08:43:13;7.45;;;2.65;;
71383;SDS011;67558;52.166;5.004;2023-03-03T08:45:41;8.43;;;3.72;;
71383;SDS011;67558;52.166;5.004;2023-03-03T08:48:08;6.38;;;2.92;;
71383;SDS011;67558;52.166;5.004;2023-03-03T08:50:34;5.22;;;2.60;;
71383;SDS011;67558;52.166;5.004;2023-03-03T08:52:59;4.22;;;2.97;;
71383;SDS011;67558;52.166;5.004;2023-03-03T08:55:24;7.45;;;3.55;;
71383;SDS011;67558;52.166;5.004;2023-03-03T08:57:50;8.65;;;4.78;;
71383;SDS011;67558;52.166;5.004;2023-03-03T09:00:16;9.25;;;4.25;;
71383;SDS011;67558;52.166;5.004;2023-03-03T09:02:42;2.72;;;2.17;;
71383;SDS011;67558;52.166;5.004;2023-03-03T09:05:08;4.72;;;2.38;;
71383;SDS011;67558;52.166;5.004;2023-03-03T09:07:34;7.38;;;3.38;;
71383;SDS011;67558;52.166;5.004;2023-03-03T09:10:00;5.88;;;3.50;;
71383;SDS011;67558;52.166;5.004;2023-03-03T09:17:25;4.68;;;2.55;;
71383;SDS011;67558;52.166;5.004;2023-03-03T09:20:01;4.43;;;2.88;;
71383;SDS011;67558;52.166;5.004;2023-03-03T09:22:45;5.65;;;2.70;;
71383;SDS011;67558;52.166;5.004;2023-03-03T09:25:19;3.88;;;2.55;;
71383;SDS011;67558;52.166;5.004;2023-03-03T09:27:58;4.78;;;2.60;;
71383;SDS011;67558;52.166;5.004;2023-03-03T09:33:22;2.60;;;2.38;;
71383;SDS011;67558;52.166;5.004;2023-03-03T09:38:50;3.72;;;2.20;;
71383;SDS011;67558;52.166;5.004;2023-03-03T09:47:00;3.85;;;2.58;;
71383;SDS011;67558;52.166;5.004;2023-03-03T09:49:33;1.98;;;1.83;;
71383;SDS011;67558;52.166;5.004;2023-03-03T10:00:53;3.38;;;1.88;;
71383;SDS011;67558;52.166;5.004;2023-03-03T10:06:26;8.02;;;3.15;;
71383;SDS011;67558;52.166;5.004;2023-03-03T10:09:15;6.75;;;2.40;;
71383;SDS011;67558;52.166;5.004;2023-03-03T10:12:04;4.18;;;2.33;;
71383;SDS011;67558;52.166;5.004;2023-03-03T10:14:40;4.85;;;2.42;;
71383;SDS011;67558;52.166;5.004;2023-03-03T10:20:16;8.05;;;2.38;;
71383;SDS011;67558;52.166;5.004;2023-03-03T10:25:23;2.58;;;1.98;;
71383;SDS011;67558;52.166;5.004;2023-03-03T10:39:36;6.40;;;3.28;;
71383;SDS011;67558;52.166;5.004;2023-03-03T10:53:21;5.85;;;2.25;;
71383;SDS011;67558;52.166;5.004;2023-03-03T10:56:11;4.07;;;1.70;;
71383;SDS011;67558;52.166;5.004;2023-03-03T11:09:33;9.05;;;2.80;;
71383;SDS011;67558;52.166;5.004;2023-03-03T11:14:55;5.18;;;2.47;;
71383;SDS011;67558;52.166;5.004;2023-03-03T11:17:31;3.72;;;2.05;;
71383;SDS011;67558;52.166;5.004;2023-03-03T11:20:00;7.22;;;2.65;;
71383;SDS011;67558;52.166;5.004;2023-03-03T11:27:57;4.43;;;2.08;;
71383;SDS011;67558;52.166;5.004;2023-03-03T11:41:07;2.83;;;1.35;;
71383;SDS011;67558;52.166;5.004;2023-03-03T11:43:50;1.33;;;0.85;;
71383;SDS011;67558;52.166;5.004;2023-03-03T11:46:21;2.60;;;2.05;;
71383;SDS011;67558;52.166;5.004;2023-03-03T11:48:58;2.65;;;1.83;;
71383;SDS011;67558;52.166;5.004;2023-03-03T11:51:31;8.23;;;1.90;;
71383;SDS011;67558;52.166;5.004;2023-03-03T11:54:14;5.43;;;2.47;;
71383;SDS011;67558;52.166;5.004;2023-03-03T11:56:43;2.78;;;2.05;;
71383;SDS011;67558;52.166;5.004;2023-03-03T12:05:09;2.50;;;1.48;;
71383;SDS011;67558;52.166;5.004;2023-03-03T12:13:48;2.63;;;1.92;;
71383;SDS011;67558;52.166;5.004;2023-03-03T12:16:24;3.67;;;2.00;;
71383;SDS011;67558;52.166;5.004;2023-03-03T12:19:04;2.25;;;1.83;;
71383;SDS011;67558;52.166;5.004;2023-03-03T12:30:26;1.75;;;1.30;;
71383;SDS011;67558;52.166;5.004;2023-03-03T12:36:04;2.38;;;1.45;;
71383;SDS011;67558;52.166;5.004;2023-03-03T12:41:32;2.40;;;1.88;;
71383;SDS011;67558;52.166;5.004;2023-03-03T12:49:20;3.35;;;2.10;;
71383;SDS011;67558;52.166;5.004;2023-03-03T12:57:30;5.18;;;1.77;;
71383;SDS011;67558;52.166;5.004;2023-03-03T13:03:06;2.60;;;1.30;;
71383;SDS011;67558;52.166;5.004;2023-03-03T13:05:50;1.33;;;1.00;;
71383;SDS011;67558;52.166;5.004;2023-03-03T13:08:41;0.80;;;0.80;;
71383;SDS011;67558;52.166;5.004;2023-03-03T13:11:31;1.42;;;1.08;;
71383;SDS011;67558;52.166;5.004;2023-03-03T13:17:01;1.95;;;1.10;;
71383;SDS011;67558;52.166;5.004;2023-03-03T13:19:45;2.45;;;1.05;;
71383;SDS011;67558;52.166;5.004;2023-03-03T13:24:54;1.35;;;1.10;;
71383;SDS011;67558;52.166;5.004;2023-03-03T13:27:26;1.75;;;1.50;;
71383;SDS011;67558;52.166;5.004;2023-03-03T13:30:11;2.20;;;1.50;;
71383;SDS011;67558;52.166;5.004;2023-03-03T13:38:02;1.98;;;1.30;;
71383;SDS011;67558;52.166;5.004;2023-03-03T13:48:44;5.53;;;1.77;;
71383;SDS011;67558;52.166;5.004;2023-03-03T14:00:21;1.40;;;1.17;;
71383;SDS011;67558;52.166;5.004;2023-03-03T14:05:48;1.95;;;1.63;;
71383;SDS011;67558;52.166;5.004;2023-03-03T14:08:38;2.30;;;1.50;;
71383;SDS011;67558;52.166;5.004;2023-03-03T14:14:32;1.50;;;1.20;;
71383;SDS011;67558;52.166;5.004;2023-03-03T14:20:05;1.35;;;1.23;;
71383;SDS011;67558;52.166;5.004;2023-03-03T14:25:16;2.45;;;1.13;;
71383;SDS011;67558;52.166;5.004;2023-03-03T14:35:40;3.38;;;2.65;;
71383;SDS011;67558;52.166;5.004;2023-03-03T14:40:36;2.97;;;1.50;;
71383;SDS011;67558;52.166;5.004;2023-03-03T14:45:47;3.95;;;1.38;;
71383;SDS011;67558;52.166;5.004;2023-03-03T14:50:39;1.20;;;0.97;;
71383;SDS011;67558;52.166;5.004;2023-03-03T14:53:10;1.50;;;1.40;;
71383;SDS011;67558;52.166;5.004;2023-03-03T14:58:07;1.70;;;1.60;;
71383;SDS011;67558;52.166;5.004;2023-03-03T15:00:47;5.18;;;1.38;;
71383;SDS011;67558;52.166;5.004;2023-03-03T15:03:22;1.45;;;1.35;;
71383;SDS011;67558;52.166;5.004;2023-03-03T15:05:54;1.40;;;1.10;;
71383;SDS011;67558;52.166;5.004;2023-03-03T15:08:35;1.40;;;1.23;;
71383;SDS011;67558;52.166;5.004;2023-03-03T15:14:03;1.48;;;1.17;;
71383;SDS011;67558;52.166;5.004;2023-03-03T15:16:36;1.35;;;1.17;;
71383;SDS011;67558;52.166;5.004;2023-03-03T15:22:03;4.18;;;1.83;;
71383;SDS011;67558;52.166;5.004;2023-03-03T15:24:44;4.20;;;1.10;;
71383;SDS011;67558;52.166;5.004;2023-03-03T15:27:34;7.10;;;1.15;;
71383;SDS011;67558;52.166;5.004;2023-03-03T15:41:49;2.90;;;1.50;;
71383;SDS011;67558;52.166;5.004;2023-03-03T15:44:20;2.22;;;1.30;;
71383;SDS011;67558;52.166;5.004;2023-03-03T16:09:15;2.47;;;1.05;;
71383;SDS011;67558;52.166;5.004;2023-03-03T16:17:22;7.15;;;1.50;;
71383;SDS011;67558;52.166;5.004;2023-03-03T16:20:13;2.88;;;1.10;;
71383;SDS011;67558;52.166;5.004;2023-03-03T16:23:13;1.70;;;1.35;;
71383;SDS011;67558;52.166;5.004;2023-03-03T16:37:11;2.85;;;1.27;;
71383;SDS011;67558;52.166;5.004;2023-03-03T16:42:19;4.97;;;1.50;;
71383;SDS011;67558;52.166;5.004;2023-03-03T16:47:49;3.88;;;1.23;;
71383;SDS011;67558;52.166;5.004;2023-03-03T16:50:25;3.30;;;1.13;;
71383;SDS011;67558;52.166;5.004;2023-03-03T17:16:00;3.10;;;1.48;;
71383;SDS011;67558;52.166;5.004;2023-03-03T17:21:23;2.60;;;1.38;;
71383;SDS011;67558;52.166;5.004;2023-03-03T17:24:07;1.90;;;1.65;;
71383;SDS011;67558;52.166;5.004;2023-03-03T17:26:45;2.40;;;1.30;;
71383;SDS011;67558;52.166;5.004;2023-03-03T17:40:13;2.67;;;1.45;;
71383;SDS011;67558;52.166;5.004;2023-03-03T17:46:00;1.55;;;1.45;;
71383;SDS011;67558;52.166;5.004;2023-03-03T17:54:21;2.30;;;1.23;;
71383;SDS011;67558;52.166;5.004;2023-03-03T18:11:21;7.53;;;2.22;;
71383;SDS011;67558;52.166;5.004;2023-03-03T18:22:11;2.47;;;2.15;;
71383;SDS011;67558;52.166;5.004;2023-03-03T18:35:23;1.50;;;1.38;;
71383;SDS011;67558;52.166;5.004;2023-03-03T18:49:45;4.90;;;2.22;;
71383;SDS011;67558;52.166;5.004;2023-03-03T18:56:45;8.07;;;2.22;;
71383;SDS011;67558;52.166;5.004;2023-03-03T19:02:50;4.50;;;1.83;;
71383;SDS011;67558;52.166;5.004;2023-03-03T19:18:02;9.63;;;1.75;;
71383;SDS011;67558;52.166;5.004;2023-03-03T19:23:21;3.83;;;1.60;;
71383;SDS011;67558;52.166;5.004;2023-03-03T19:31:25;6.38;;;1.60;;
71383;SDS011;67558;52.166;5.004;2023-03-03T19:39:50;1.50;;;1.23;;
71383;SDS011;67558;52.166;5.004;2023-03-03T19:45:17;6.00;;;2.03;;
71383;SDS011;67558;52.166;5.004;2023-03-03T19:50:57;10.52;;;2.05;;
71383;SDS011;67558;52.166;5.004;2023-03-03T20:16:05;4.72;;;1.23;;
71383;SDS011;67558;52.166;5.004;2023-03-03T20:21:30;2.38;;;1.10;;
71383;SDS011;67558;52.166;5.004;2023-03-03T20:29:42;9.77;;;1.95;;
71383;SDS011;67558;52.166;5.004;2023-03-03T20:51:53;3.15;;;1.70;;
71383;SDS011;67558;52.166;5.004;2023-03-03T20:54:27;7.28;;;2.85;;
71383;SDS011;67558;52.166;5.004;2023-03-03T21:00:07;5.13;;;1.83;;
71383;SDS011;67558;52.166;5.004;2023-03-03T21:05:30;4.80;;;2.17;;
71383;SDS011;67558;52.166;5.004;2023-03-03T21:07:59;8.38;;;2.00;;
71383;SDS011;67558;52.166;5.004;2023-03-03T21:10:28;6.82;;;1.50;;
71383;SDS011;67558;52.166;5.004;2023-03-03T21:12:56;4.28;;;1.55;;
71383;SDS011;67558;52.166;5.004;2023-03-03T21:15:30;8.50;;;1.85;;
71383;SDS011;67558;52.166;5.004;2023-03-03T21:18:21;3.92;;;1.17;;
71383;SDS011;67558;52.166;5.004;2023-03-03T21:20:52;3.53;;;1.55;;
71383;SDS011;67558;52.166;5.004;2023-03-03T21:23:17;4.45;;;1.45;;
71383;SDS011;67558;52.166;5.004;2023-03-03T21:25:48;11.00;;;2.30;;
71383;SDS011;67558;52.166;5.004;2023-03-03T21:28:19;10.90;;;2.47;;
71383;SDS011;67558;52.166;5.004;2023-03-03T21:33:43;5.40;;;2.13;;
71383;SDS011;67558;52.166;5.004;2023-03-03T21:36:16;5.35;;;1.77;;
71383;SDS011;67558;52.166;5.004;2023-03-03T21:38:58;9.77;;;1.98;;
71383;SDS011;67558;52.166;5.004;2023-03-03T21:41:26;6.03;;;2.53;;
71383;SDS011;67558;52.166;5.004;2023-03-03T21:43:51;5.75;;;1.60;;
71383;SDS011;67558;52.166;5.004;2023-03-03T21:46:21;11.55;;;1.88;;
71383;SDS011;67558;52.166;5.004;2023-03-03T21:48:49;3.70;;;2.00;;
71383;SDS011;67558;52.166;5.004;2023-03-03T21:51:15;7.53;;;2.50;;
71383;SDS011;67558;52.166;5.004;2023-03-03T21:53:41;4.93;;;1.70;;
71383;SDS011;67558;52.166;5.004;2023-03-03T21:56:08;9.13;;;2.00;;
71383;SDS011;67558;52.166;5.004;2023-03-03T21:58:34;10.30;;;2.33;;
71383;SDS011;67558;52.166;5.004;2023-03-03T22:00:59;7.70;;;2.38;;
71383;SDS011;67558;52.166;5.004;2023-03-03T22:03:24;6.68;;;2.08;;
71383;SDS011;67558;52.166;5.004;2023-03-03T22:05:50;11.25;;;2.13;;
71383;SDS011;67558;52.166;5.004;2023-03-03T22:08:16;8.63;;;2.13;;
71383;SDS011;67558;52.166;5.004;2023-03-03T22:10:47;3.17;;;1.73;;
71383;SDS011;67558;52.166;5.004;2023-03-03T22:13:18;4.20;;;1.90;;
71383;SDS011;67558;52.166;5.004;2023-03-03T22:15:46;5.20;;;1.88;;
71383;SDS011;67558;52.166;5.004;2023-03-03T22:18:12;1.30;;;1.00;;
71383;SDS011;67558;52.166;5.004;2023-03-03T22:20:38;5.10;;;1.38;;
71383;SDS011;67558;52.166;5.004;2023-03-03T22:23:04;7.28;;;2.15;;
71383;SDS011;67558;52.166;5.004;2023-03-03T22:25:29;6.55;;;2.20;;
71383;SDS011;67558;52.166;5.004;2023-03-03T22:27:55;7.53;;;1.42;;
71383;SDS011;67558;52.166;5.004;2023-03-03T22:30:20;2.50;;;1.20;;
71383;SDS011;67558;52.166;5.004;2023-03-03T22:32:45;10.80;;;1.73;;
71383;SDS011;67558;52.166;5.004;2023-03-03T22:35:11;5.50;;;1.40;;
71383;SDS011;67558;52.166;5.004;2023-03-03T22:37:36;6.30;;;1.67;;
71383;SDS011;67558;52.166;5.004;2023-03-03T22:40:02;7.75;;;1.75;;
71383;SDS011;67558;52.166;5.004;2023-03-03T22:42:27;5.72;;;1.38;;
71383;SDS011;67558;52.166;5.004;2023-03-03T22:44:52;4.35;;;1.27;;
71383;SDS011;67558;52.166;5.004;2023-03-03T22:47:18;4.43;;;1.10;;
71383;SDS011;67558;52.166;5.004;2023-03-03T22:49:43;7.85;;;1.65;;
71383;SDS011;67558;52.166;5.004;2023-03-03T22:52:09;6.05;;;1.20;;
71383;SDS011;67558;52.166;5.004;2023-03-03T22:54:34;3.92;;;1.70;;
71383;SDS011;67558;52.166;5.004;2023-03-03T22:56:59;1.02;;;0.80;;